sensor_id;sensor_type;location;lat;lon;timestamp;temperature;humidity
25170;DHT22;13129;48.012;10.352;2023-07-22T03:30:24;11.30;99.90
25170;DHT22;13129;48.012;10.352;2023-07-22T03:32:51;11.40;99.90
25170;DHT22;13129;48.012;10.352;2023-07-22T03:35:17;11.40;99.90
25170;DHT22;13129;48.012;10.352;2023-07-22T03:37:43;11.30;99.90
25170;DHT22;13129;48.012;10.352;2023-07-22T03:40:09;11.20;99.90
25170;DHT22;13129;48.012;10.352;2023-07-22T03:43:07;11.20;99.90
25170;DHT22;13129;48.012;10.352;2023-07-22T03:45:33;11.20;99.90
25170;DHT22;13129;48.012;10.352;2023-07-22T03:47:59;11.10;99.90
25170;DHT22;13129;48.012;10.352;2023-07-22T03:50:26;11.10;99.90
25170;DHT22;13129;48.012;10.352;2023-07-22T03:52:52;11.20;99.90
25170;DHT22;13129;48.012;10.352;2023-07-22T03:55:17;11.20;99.90
25170;DHT22;13129;48.012;10.352;2023-07-22T03:57:45;11.30;99.90
25170;DHT22;13129;48.012;10.352;2023-07-22T04:00:10;11.30;99.90
25170;DHT22;13129;48.012;10.352;2023-07-22T04:02:36;11.30;99.90
25170;DHT22;13129;48.012;10.352;2023-07-22T04:05:02;11.30;99.90
25170;DHT22;13129;48.012;10.352;2023-07-22T04:07:28;11.30;99.90
25170;DHT22;13129;48.012;10.352;2023-07-22T04:09:54;11.50;99.90
25170;DHT22;13129;48.012;10.352;2023-07-22T04:12:19;11.60;99.90
25170;DHT22;13129;48.012;10.352;2023-07-22T04:14:45;11.70;99.90
25170;DHT22;13129;48.012;10.352;2023-07-22T04:17:10;11.80;99.90
25170;DHT22;13129;48.012;10.352;2023-07-22T04:19:36;11.90;99.90
25170;DHT22;13129;48.012;10.352;2023-07-22T04:22:02;12.00;99.90
25170;DHT22;13129;48.012;10.352;2023-07-22T04:24:32;11.90;99.90
25170;DHT22;13129;48.012;10.352;2023-07-22T04:26:58;12.00;99.90
25170;DHT22;13129;48.012;10.352;2023-07-22T04:29:24;12.00;99.90
25170;DHT22;13129;48.012;10.352;2023-07-22T04:31:49;12.00;99.90
25170;DHT22;13129;48.012;10.352;2023-07-22T04:34:15;12.00;99.90
25170;DHT22;13129;48.012;10.352;2023-07-22T04:36:40;12.10;99.90
25170;DHT22;13129;48.012;10.352;2023-07-22T04:39:06;12.10;99.90
25170;DHT22;13129;48.012;10.352;2023-07-22T04:41:33;12.20;99.90
25170;DHT22;13129;48.012;10.352;2023-07-22T04:43:58;12.30;99.90
25170;DHT22;13129;48.012;10.352;2023-07-22T04:46:25;12.40;99.90
25170;DHT22;13129;48.012;10.352;2023-07-22T04:48:54;12.50;99.90
25170;DHT22;13129;48.012;10.352;2023-07-22T04:51:20;12.80;99.90
25170;DHT22;13129;48.012;10.352;2023-07-22T04:53:46;12.90;99.90
25170;DHT22;13129;48.012;10.352;2023-07-22T04:56:11;13.00;99.90
25170;DHT22;13129;48.012;10.352;2023-07-22T04:58:37;13.10;99.90
25170;DHT22;13129;48.012;10.352;2023-07-22T05:01:04;13.20;99.90
25170;DHT22;13129;48.012;10.352;2023-07-22T05:03:29;13.40;99.90
25170;DHT22;13129;48.012;10.352;2023-07-22T05:05:55;13.60;99.90
25170;DHT22;13129;48.012;10.352;2023-07-22T05:08:20;13.80;99.90
25170;DHT22;13129;48.012;10.352;2023-07-22T05:10:46;13.90;99.90
25170;DHT22;13129;48.012;10.352;2023-07-22T05:13:12;14.10;99.90
25170;DHT22;13129;48.012;10.352;2023-07-22T05:15:37;14.40;99.90
25170;DHT22;13129;48.012;10.352;2023-07-22T05:18:03;14.50;99.90
25170;DHT22;13129;48.012;10.352;2023-07-22T05:20:28;14.80;99.90
25170;DHT22;13129;48.012;10.352;2023-07-22T05:22:55;15.10;99.90
25170;DHT22;13129;48.012;10.352;2023-07-22T05:25:20;15.40;99.90
25170;DHT22;13129;48.012;10.352;2023-07-22T05:27:46;15.70;99.90
25170;DHT22;13129;48.012;10.352;2023-07-22T05:30:11;16.00;99.90
25170;DHT22;13129;48.012;10.352;2023-07-22T05:32:37;16.20;99.90
25170;DHT22;13129;48.012;10.352;2023-07-22T05:35:03;16.40;99.90
25170;DHT22;13129;48.012;10.352;2023-07-22T05:37:30;17.00;99.90
25170;DHT22;13129;48.012;10.352;2023-07-22T05:39:56;17.70;99.90
25170;DHT22;13129;48.012;10.352;2023-07-22T05:42:21;17.90;99.90
25170;DHT22;13129;48.012;10.352;2023-07-22T05:44:48;18.30;99.90
25170;DHT22;13129;48.012;10.352;2023-07-22T05:47:13;18.60;99.90
25170;DHT22;13129;48.012;10.352;2023-07-22T05:49:39;19.30;99.90
25170;DHT22;13129;48.012;10.352;2023-07-22T05:52:05;20.30;99.90
25170;DHT22;13129;48.012;10.352;2023-07-22T05:54:31;21.30;99.90
25170;DHT22;13129;48.012;10.352;2023-07-22T05:56:56;21.70;99.90
25170;DHT22;13129;48.012;10.352;2023-07-22T05:59:22;22.20;99.90
25170;DHT22;13129;48.012;10.352;2023-07-22T06:01:47;23.20;99.90
25170;DHT22;13129;48.012;10.352;2023-07-22T06:04:13;24.30;99.90
25170;DHT22;13129;48.012;10.352;2023-07-22T06:06:38;25.10;99.90
25170;DHT22;13129;48.012;10.352;2023-07-22T06:09:04;26.00;99.90
25170;DHT22;13129;48.012;10.352;2023-07-22T06:11:30;26.70;99.00
25170;DHT22;13129;48.012;10.352;2023-07-22T06:13:55;27.10;96.00
25170;DHT22;13129;48.012;10.352;2023-07-22T06:16:21;27.30;94.50
25170;DHT22;13129;48.012;10.352;2023-07-22T06:18:47;27.80;93.30
25170;DHT22;13129;48.012;10.352;2023-07-22T06:21:13;28.30;91.60
25170;DHT22;13129;48.012;10.352;2023-07-22T06:23:39;28.80;89.70
25170;DHT22;13129;48.012;10.352;2023-07-22T06:26:04;29.40;87.60
25170;DHT22;13129;48.012;10.352;2023-07-22T06:28:30;30.00;83.60
25170;DHT22;13129;48.012;10.352;2023-07-22T06:30:55;30.70;80.50
25170;DHT22;13129;48.012;10.352;2023-07-22T06:33:22;31.30;77.60
25170;DHT22;13129;48.012;10.352;2023-07-22T06:35:48;31.10;74.10
25170;DHT22;13129;48.012;10.352;2023-07-22T06:38:13;30.80;75.30
25170;DHT22;13129;48.012;10.352;2023-07-22T06:40:39;30.90;75.00
25170;DHT22;13129;48.012;10.352;2023-07-22T06:43:05;30.80;73.30
25170;DHT22;13129;48.012;10.352;2023-07-22T06:45:32;30.20;72.70
25170;DHT22;13129;48.012;10.352;2023-07-22T06:47:58;29.70;73.50
25170;DHT22;13129;48.012;10.352;2023-07-22T06:50:24;29.70;73.90
25170;DHT22;13129;48.012;10.352;2023-07-22T06:52:49;30.60;72.70
25170;DHT22;13129;48.012;10.352;2023-07-22T06:55:15;31.30;71.50
25170;DHT22;13129;48.012;10.352;2023-07-22T06:57:41;31.60;68.60
25170;DHT22;13129;48.012;10.352;2023-07-22T07:00:07;32.00;67.30
25170;DHT22;13129;48.012;10.352;2023-07-22T07:02:35;33.00;65.30
25170;DHT22;13129;48.012;10.352;2023-07-22T07:05:01;33.50;62.60
25170;DHT22;13129;48.012;10.352;2023-07-22T07:07:27;33.80;60.00
25170;DHT22;13129;48.012;10.352;2023-07-22T07:09:53;33.70;59.20
25170;DHT22;13129;48.012;10.352;2023-07-22T07:12:18;34.20;58.80
25170;DHT22;13129;48.012;10.352;2023-07-22T07:14:44;34.80;57.60
25170;DHT22;13129;48.012;10.352;2023-07-22T07:17:09;34.60;56.40
25170;DHT22;13129;48.012;10.352;2023-07-22T07:19:35;34.20;56.20
25170;DHT22;13129;48.012;10.352;2023-07-22T07:22:00;34.00;57.10
25170;DHT22;13129;48.012;10.352;2023-07-22T07:24:26;33.80;56.90
25170;DHT22;13129;48.012;10.352;2023-07-22T07:26:52;34.10;56.30
25170;DHT22;13129;48.012;10.352;2023-07-22T07:29:18;34.50;55.60
25170;DHT22;13129;48.012;10.352;2023-07-22T07:31:43;34.50;55.20
25170;DHT22;13129;48.012;10.352;2023-07-22T07:34:09;34.50;54.90
25170;DHT22;13129;48.012;10.352;2023-07-22T07:36:34;34.40;54.40
25170;DHT22;13129;48.012;10.352;2023-07-22T07:39:00;34.70;54.20
25170;DHT22;13129;48.012;10.352;2023-07-22T07:41:26;35.20;53.30
25170;DHT22;13129;48.012;10.352;2023-07-22T07:43:53;35.50;53.10
25170;DHT22;13129;48.012;10.352;2023-07-22T07:46:21;36.10;52.70
25170;DHT22;13129;48.012;10.352;2023-07-22T07:48:52;36.40;51.90
25170;DHT22;13129;48.012;10.352;2023-07-22T07:51:19;36.50;50.20
25170;DHT22;13129;48.012;10.352;2023-07-22T07:53:46;35.90;49.70
25170;DHT22;13129;48.012;10.352;2023-07-22T07:56:15;35.70;50.80
25170;DHT22;13129;48.012;10.352;2023-07-22T07:58:42;35.40;50.00
25170;DHT22;13129;48.012;10.352;2023-07-22T08:01:08;35.30;50.10
25170;DHT22;13129;48.012;10.352;2023-07-22T08:03:34;35.40;50.50
25170;DHT22;13129;48.012;10.352;2023-07-22T08:06:01;35.50;50.70
25170;DHT22;13129;48.012;10.352;2023-07-22T08:08:27;35.00;50.30
25170;DHT22;13129;48.012;10.352;2023-07-22T08:11:07;34.50;51.10
25170;DHT22;13129;48.012;10.352;2023-07-22T08:13:37;34.60;51.80
25170;DHT22;13129;48.012;10.352;2023-07-22T08:16:03;35.00;51.50
25170;DHT22;13129;48.012;10.352;2023-07-22T08:18:30;36.00;50.70
25170;DHT22;13129;48.012;10.352;2023-07-22T08:20:56;36.70;50.00
25170;DHT22;13129;48.012;10.352;2023-07-22T08:23:22;36.60;48.70
25170;DHT22;13129;48.012;10.352;2023-07-22T08:25:48;36.70;48.40
25170;DHT22;13129;48.012;10.352;2023-07-22T08:28:15;36.30;48.70
25170;DHT22;13129;48.012;10.352;2023-07-22T08:30:41;36.10;49.60
25170;DHT22;13129;48.012;10.352;2023-07-22T08:33:08;36.60;49.70
25170;DHT22;13129;48.012;10.352;2023-07-22T08:35:35;35.50;50.00
25170;DHT22;13129;48.012;10.352;2023-07-22T08:38:01;35.50;50.90
25170;DHT22;13129;48.012;10.352;2023-07-22T08:40:32;35.50;49.30
25170;DHT22;13129;48.012;10.352;2023-07-22T08:42:58;35.50;48.50
25170;DHT22;13129;48.012;10.352;2023-07-22T08:45:26;34.60;48.40
25170;DHT22;13129;48.012;10.352;2023-07-22T08:47:56;34.80;49.20
25170;DHT22;13129;48.012;10.352;2023-07-22T08:50:29;34.60;48.00
25170;DHT22;13129;48.012;10.352;2023-07-22T08:52:55;35.10;48.20
25170;DHT22;13129;48.012;10.352;2023-07-22T08:55:22;35.00;48.40
25170;DHT22;13129;48.012;10.352;2023-07-22T08:57:49;35.80;47.60
25170;DHT22;13129;48.012;10.352;2023-07-22T09:00:16;36.60;46.60
25170;DHT22;13129;48.012;10.352;2023-07-22T09:02:42;37.30;45.70
25170;DHT22;13129;48.012;10.352;2023-07-22T09:05:08;37.30;45.80
25170;DHT22;13129;48.012;10.352;2023-07-22T09:07:37;37.40;47.10
25170;DHT22;13129;48.012;10.352;2023-07-22T09:10:05;36.70;46.40
25170;DHT22;13129;48.012;10.352;2023-07-22T09:12:33;36.50;47.00
25170;DHT22;13129;48.012;10.352;2023-07-22T09:15:07;37.10;45.60
25170;DHT22;13129;48.012;10.352;2023-07-22T09:17:34;37.50;44.70
25170;DHT22;13129;48.012;10.352;2023-07-22T09:20:01;37.60;45.50
25170;DHT22;13129;48.012;10.352;2023-07-22T09:22:28;37.80;45.50
25170;DHT22;13129;48.012;10.352;2023-07-22T09:25:21;37.80;45.60
25170;DHT22;13129;48.012;10.352;2023-07-22T09:27:51;38.00;44.50
25170;DHT22;13129;48.012;10.352;2023-07-22T09:30:29;38.30;44.20
25170;DHT22;13129;48.012;10.352;2023-07-22T09:32:59;38.40;43.90
25170;DHT22;13129;48.012;10.352;2023-07-22T09:35:27;38.30;44.40
25170;DHT22;13129;48.012;10.352;2023-07-22T09:37:54;38.60;44.20
25170;DHT22;13129;48.012;10.352;2023-07-22T09:40:21;38.70;43.60
25170;DHT22;13129;48.012;10.352;2023-07-22T09:42:51;38.50;44.30
25170;DHT22;13129;48.012;10.352;2023-07-22T09:45:29;38.40;42.80
25170;DHT22;13129;48.012;10.352;2023-07-22T09:47:56;36.00;43.70
25170;DHT22;13129;48.012;10.352;2023-07-22T09:50:23;33.40;46.90
25170;DHT22;13129;48.012;10.352;2023-07-22T09:52:54;31.10;50.20
25170;DHT22;13129;48.012;10.352;2023-07-22T09:55:22;30.30;53.70
25170;DHT22;13129;48.012;10.352;2023-07-22T09:58:08;31.10;53.40
25170;DHT22;13129;48.012;10.352;2023-07-22T10:00:35;31.40;52.00
25170;DHT22;13129;48.012;10.352;2023-07-22T10:03:02;32.00;52.30
25170;DHT22;13129;48.012;10.352;2023-07-22T10:05:35;33.40;50.10
25170;DHT22;13129;48.012;10.352;2023-07-22T10:08:02;33.70;48.50
25170;DHT22;13129;48.012;10.352;2023-07-22T10:10:37;33.50;49.50
25170;DHT22;13129;48.012;10.352;2023-07-22T10:13:03;34.10;49.10
25170;DHT22;13129;48.012;10.352;2023-07-22T10:15:31;34.50;48.50
25170;DHT22;13129;48.012;10.352;2023-07-22T10:17:58;35.10;48.70
25170;DHT22;13129;48.012;10.352;2023-07-22T10:20:25;34.80;47.50
25170;DHT22;13129;48.012;10.352;2023-07-22T10:22:51;33.60;48.90
25170;DHT22;13129;48.012;10.352;2023-07-22T10:25:18;32.30;50.00
25170;DHT22;13129;48.012;10.352;2023-07-22T10:27:44;30.40;51.80
25170;DHT22;13129;48.012;10.352;2023-07-22T10:30:14;29.80;55.10
25170;DHT22;13129;48.012;10.352;2023-07-22T10:32:41;29.80;55.80
25170;DHT22;13129;48.012;10.352;2023-07-22T10:35:11;28.90;55.70
25170;DHT22;13129;48.012;10.352;2023-07-22T10:37:38;29.00;57.00
25170;DHT22;13129;48.012;10.352;2023-07-22T10:40:26;28.80;57.30
25170;DHT22;13129;48.012;10.352;2023-07-22T10:43:05;28.90;57.40
25170;DHT22;13129;48.012;10.352;2023-07-22T10:45:33;28.90;54.80
25170;DHT22;13129;48.012;10.352;2023-07-22T10:48:05;28.00;55.40
25170;DHT22;13129;48.012;10.352;2023-07-22T10:50:58;27.80;57.30
25170;DHT22;13129;48.012;10.352;2023-07-22T10:58:30;28.00;57.20
25170;DHT22;13129;48.012;10.352;2023-07-22T11:00:56;28.10;57.40
25170;DHT22;13129;48.012;10.352;2023-07-22T11:03:22;28.30;57.20
25170;DHT22;13129;48.012;10.352;2023-07-22T11:05:52;28.00;57.00
25170;DHT22;13129;48.012;10.352;2023-07-22T11:08:39;27.20;56.70
25170;DHT22;13129;48.012;10.352;2023-07-22T11:11:05;26.30;57.50
25170;DHT22;13129;48.012;10.352;2023-07-22T11:13:38;25.60;58.70
25170;DHT22;13129;48.012;10.352;2023-07-22T11:16:08;25.00;61.60
25170;DHT22;13129;48.012;10.352;2023-07-22T11:18:41;25.30;64.70
25170;DHT22;13129;48.012;10.352;2023-07-22T11:21:09;25.90;63.10
25170;DHT22;13129;48.012;10.352;2023-07-22T11:23:34;26.10;60.70
25170;DHT22;13129;48.012;10.352;2023-07-22T11:26:01;26.30;61.00
25170;DHT22;13129;48.012;10.352;2023-07-22T11:28:27;26.40;61.20
25170;DHT22;13129;48.012;10.352;2023-07-22T11:30:53;26.60;61.50
25170;DHT22;13129;48.012;10.352;2023-07-22T11:33:19;26.80;60.90
25170;DHT22;13129;48.012;10.352;2023-07-22T11:35:44;27.40;60.00
25170;DHT22;13129;48.012;10.352;2023-07-22T11:38:12;27.50;60.70
25170;DHT22;13129;48.012;10.352;2023-07-22T11:40:38;27.40;59.70
25170;DHT22;13129;48.012;10.352;2023-07-22T11:43:03;27.40;59.20
25170;DHT22;13129;48.012;10.352;2023-07-22T11:45:30;27.40;58.30
25170;DHT22;13129;48.012;10.352;2023-07-22T11:47:56;27.50;58.40
25170;DHT22;13129;48.012;10.352;2023-07-22T11:50:34;27.60;58.10
25170;DHT22;13129;48.012;10.352;2023-07-22T11:53:00;27.50;57.70
25170;DHT22;13129;48.012;10.352;2023-07-22T11:55:25;27.70;56.80
25170;DHT22;13129;48.012;10.352;2023-07-22T11:57:54;27.50;57.00
25170;DHT22;13129;48.012;10.352;2023-07-22T12:00:20;27.50;57.50
25170;DHT22;13129;48.012;10.352;2023-07-22T12:02:46;27.50;57.70
25170;DHT22;13129;48.012;10.352;2023-07-22T12:05:20;27.70;57.60
25170;DHT22;13129;48.012;10.352;2023-07-22T12:07:45;27.50;55.10
25170;DHT22;13129;48.012;10.352;2023-07-22T12:10:11;27.40;56.20
25170;DHT22;13129;48.012;10.352;2023-07-22T12:12:42;27.20;56.20
25170;DHT22;13129;48.012;10.352;2023-07-22T12:15:12;26.60;57.70
25170;DHT22;13129;48.012;10.352;2023-07-22T12:17:46;26.00;58.70
25170;DHT22;13129;48.012;10.352;2023-07-22T12:20:12;25.90;59.60
25170;DHT22;13129;48.012;10.352;2023-07-22T12:22:38;26.00;60.70
25170;DHT22;13129;48.012;10.352;2023-07-22T12:25:04;26.20;59.70
25170;DHT22;13129;48.012;10.352;2023-07-22T12:27:30;26.50;59.40
25170;DHT22;13129;48.012;10.352;2023-07-22T12:29:56;26.60;59.30
25170;DHT22;13129;48.012;10.352;2023-07-22T12:32:21;26.80;58.50
25170;DHT22;13129;48.012;10.352;2023-07-22T12:34:47;26.80;57.60
25170;DHT22;13129;48.012;10.352;2023-07-22T12:37:12;26.60;57.00
25170;DHT22;13129;48.012;10.352;2023-07-22T12:39:38;26.50;59.00
25170;DHT22;13129;48.012;10.352;2023-07-22T12:42:03;26.20;58.90
25170;DHT22;13129;48.012;10.352;2023-07-22T12:44:29;26.30;59.10
25170;DHT22;13129;48.012;10.352;2023-07-22T12:46:55;26.40;59.00
25170;DHT22;13129;48.012;10.352;2023-07-22T12:49:21;26.40;58.00
25170;DHT22;13129;48.012;10.352;2023-07-22T12:51:46;26.30;59.10
25170;DHT22;13129;48.012;10.352;2023-07-22T12:54:12;26.20;59.30
25170;DHT22;13129;48.012;10.352;2023-07-22T12:56:37;26.20;59.70
25170;DHT22;13129;48.012;10.352;2023-07-22T12:59:03;26.20;59.20
25170;DHT22;13129;48.012;10.352;2023-07-22T13:01:28;25.90;59.60
25170;DHT22;13129;48.012;10.352;2023-07-22T13:03:54;25.70;60.40
25170;DHT22;13129;48.012;10.352;2023-07-22T13:06:20;25.80;59.70
25170;DHT22;13129;48.012;10.352;2023-07-22T13:08:45;25.90;59.20
25170;DHT22;13129;48.012;10.352;2023-07-22T13:11:11;25.80;59.80
25170;DHT22;13129;48.012;10.352;2023-07-22T13:13:36;25.70;61.00
25170;DHT22;13129;48.012;10.352;2023-07-22T13:16:02;25.30;61.80
25170;DHT22;13129;48.012;10.352;2023-07-22T13:18:27;25.40;61.40
25170;DHT22;13129;48.012;10.352;2023-07-22T13:20:53;25.50;61.40
25170;DHT22;13129;48.012;10.352;2023-07-22T13:23:18;25.90;61.50
25170;DHT22;13129;48.012;10.352;2023-07-22T13:25:44;26.10;59.70
25170;DHT22;13129;48.012;10.352;2023-07-22T13:28:10;26.30;60.00
25170;DHT22;13129;48.012;10.352;2023-07-22T13:30:35;25.90;59.00
25170;DHT22;13129;48.012;10.352;2023-07-22T13:33:01;25.50;59.80
25170;DHT22;13129;48.012;10.352;2023-07-22T13:35:26;25.70;60.20
25170;DHT22;13129;48.012;10.352;2023-07-22T13:37:52;25.90;59.30
25170;DHT22;13129;48.012;10.352;2023-07-22T13:40:17;26.00;59.10
25170;DHT22;13129;48.012;10.352;2023-07-22T13:42:43;26.10;59.30
25170;DHT22;13129;48.012;10.352;2023-07-22T13:45:09;25.90;58.60
25170;DHT22;13129;48.012;10.352;2023-07-22T13:47:34;25.60;58.60
25170;DHT22;13129;48.012;10.352;2023-07-22T13:50:00;25.40;60.80
25170;DHT22;13129;48.012;10.352;2023-07-22T13:52:26;25.20;61.20
25170;DHT22;13129;48.012;10.352;2023-07-22T13:54:51;25.00;61.80
25170;DHT22;13129;48.012;10.352;2023-07-22T13:57:17;25.10;60.80
25170;DHT22;13129;48.012;10.352;2023-07-22T13:59:42;25.20;60.00
25170;DHT22;13129;48.012;10.352;2023-07-22T14:02:08;25.20;59.70
25170;DHT22;13129;48.012;10.352;2023-07-22T14:04:33;25.30;59.30
25170;DHT22;13129;48.012;10.352;2023-07-22T14:06:59;25.40;59.40
25170;DHT22;13129;48.012;10.352;2023-07-22T14:09:24;25.40;59.20
25170;DHT22;13129;48.012;10.352;2023-07-22T14:11:50;25.40;59.80
25170;DHT22;13129;48.012;10.352;2023-07-22T14:14:16;25.10;59.70
25170;DHT22;13129;48.012;10.352;2023-07-22T14:16:41;25.00;60.80
25170;DHT22;13129;48.012;10.352;2023-07-22T14:19:07;25.20;61.20
25170;DHT22;13129;48.012;10.352;2023-07-22T14:21:32;25.40;60.80
25170;DHT22;13129;48.012;10.352;2023-07-22T14:23:58;25.40;61.00
25170;DHT22;13129;48.012;10.352;2023-07-22T14:26:23;25.20;60.40
25170;DHT22;13129;48.012;10.352;2023-07-22T14:28:49;25.20;59.60
25170;DHT22;13129;48.012;10.352;2023-07-22T14:31:14;25.10;60.10
25170;DHT22;13129;48.012;10.352;2023-07-22T14:33:40;25.00;60.70
25170;DHT22;13129;48.012;10.352;2023-07-22T14:36:06;24.90;62.00
25170;DHT22;13129;48.012;10.352;2023-07-22T14:38:31;24.90;60.40
25170;DHT22;13129;48.012;10.352;2023-07-22T14:40:57;25.00;60.20
25170;DHT22;13129;48.012;10.352;2023-07-22T14:43:22;25.10;60.20
25170;DHT22;13129;48.012;10.352;2023-07-22T14:45:48;24.90;59.90
25170;DHT22;13129;48.012;10.352;2023-07-22T14:48:14;24.80;59.80
25170;DHT22;13129;48.012;10.352;2023-07-22T14:50:40;24.80;60.20
25170;DHT22;13129;48.012;10.352;2023-07-22T14:53:05;24.70;60.00
25170;DHT22;13129;48.012;10.352;2023-07-22T14:55:31;24.60;59.70
25170;DHT22;13129;48.012;10.352;2023-07-22T14:57:56;24.40;60.00
25170;DHT22;13129;48.012;10.352;2023-07-22T15:00:22;24.30;61.00
25170;DHT22;13129;48.012;10.352;2023-07-22T15:02:48;24.30;61.60
25170;DHT22;13129;48.012;10.352;2023-07-22T15:05:14;24.20;60.90
25170;DHT22;13129;48.012;10.352;2023-07-22T15:07:39;24.30;62.10
25170;DHT22;13129;48.012;10.352;2023-07-22T15:10:06;24.20;62.20
25170;DHT22;13129;48.012;10.352;2023-07-22T15:12:32;24.10;60.90
25170;DHT22;13129;48.012;10.352;2023-07-22T15:14:58;24.00;62.20
25170;DHT22;13129;48.012;10.352;2023-07-22T15:17:26;24.00;61.60
25170;DHT22;13129;48.012;10.352;2023-07-22T15:19:52;24.00;61.40
25170;DHT22;13129;48.012;10.352;2023-07-22T15:22:17;24.00;62.30
25170;DHT22;13129;48.012;10.352;2023-07-22T15:24:43;24.00;61.70
25170;DHT22;13129;48.012;10.352;2023-07-22T15:27:08;24.10;61.00
25170;DHT22;13129;48.012;10.352;2023-07-22T15:29:34;24.10;61.60
25170;DHT22;13129;48.012;10.352;2023-07-22T15:31:59;24.10;60.20
25170;DHT22;13129;48.012;10.352;2023-07-22T15:34:27;24.00;61.00
25170;DHT22;13129;48.012;10.352;2023-07-22T15:36:52;23.90;61.10
25170;DHT22;13129;48.012;10.352;2023-07-22T15:39:18;23.80;60.50
25170;DHT22;13129;48.012;10.352;2023-07-22T15:41:44;23.50;60.80
25170;DHT22;13129;48.012;10.352;2023-07-22T15:44:09;23.30;61.80
25170;DHT22;13129;48.012;10.352;2023-07-22T15:46:35;23.30;63.20
25170;DHT22;13129;48.012;10.352;2023-07-22T15:49:01;23.30;65.20
25170;DHT22;13129;48.012;10.352;2023-07-22T15:51:27;23.40;64.30
25170;DHT22;13129;48.012;10.352;2023-07-22T15:53:52;23.60;63.60
25170;DHT22;13129;48.012;10.352;2023-07-22T15:56:18;23.60;63.40
25170;DHT22;13129;48.012;10.352;2023-07-22T15:58:43;23.60;63.20
25170;DHT22;13129;48.012;10.352;2023-07-22T16:01:09;23.50;63.00
25170;DHT22;13129;48.012;10.352;2023-07-22T16:03:36;23.30;62.90
25170;DHT22;13129;48.012;10.352;2023-07-22T16:06:03;23.30;63.10
25170;DHT22;13129;48.012;10.352;2023-07-22T16:08:28;23.20;64.20
25170;DHT22;13129;48.012;10.352;2023-07-22T16:10:57;23.10;64.70
25170;DHT22;13129;48.012;10.352;2023-07-22T16:13:23;23.10;64.40
25170;DHT22;13129;48.012;10.352;2023-07-22T16:15:49;23.00;64.80
25170;DHT22;13129;48.012;10.352;2023-07-22T16:18:14;22.90;64.70
25170;DHT22;13129;48.012;10.352;2023-07-22T16:20:40;22.90;64.60
25170;DHT22;13129;48.012;10.352;2023-07-22T16:23:05;22.80;64.30
25170;DHT22;13129;48.012;10.352;2023-07-22T16:25:31;22.80;64.30
25170;DHT22;13129;48.012;10.352;2023-07-22T16:27:57;22.80;64.30
25170;DHT22;13129;48.012;10.352;2023-07-22T16:30:23;22.80;64.10
25170;DHT22;13129;48.012;10.352;2023-07-22T16:32:48;22.80;64.50
25170;DHT22;13129;48.012;10.352;2023-07-22T16:35:14;22.90;64.10
25170;DHT22;13129;48.012;10.352;2023-07-22T16:37:39;23.10;63.70
25170;DHT22;13129;48.012;10.352;2023-07-22T16:40:05;23.20;64.00
25170;DHT22;13129;48.012;10.352;2023-07-22T16:42:32;23.30;63.90
25170;DHT22;13129;48.012;10.352;2023-07-22T16:44:58;23.30;63.10
25170;DHT22;13129;48.012;10.352;2023-07-22T16:47:24;23.30;63.50
25170;DHT22;13129;48.012;10.352;2023-07-22T16:49:49;23.30;64.40
25170;DHT22;13129;48.012;10.352;2023-07-22T16:52:15;23.10;64.90
25170;DHT22;13129;48.012;10.352;2023-07-22T16:54:41;23.00;64.90
25170;DHT22;13129;48.012;10.352;2023-07-22T16:57:07;22.80;65.40
25170;DHT22;13129;48.012;10.352;2023-07-22T16:59:32;22.70;65.30
25170;DHT22;13129;48.012;10.352;2023-07-22T17:01:58;22.60;65.70
25170;DHT22;13129;48.012;10.352;2023-07-22T17:04:24;22.50;65.90
25170;DHT22;13129;48.012;10.352;2023-07-22T17:06:49;22.40;65.60
25170;DHT22;13129;48.012;10.352;2023-07-22T17:09:15;22.40;65.60
25170;DHT22;13129;48.012;10.352;2023-07-22T17:11:42;22.30;66.00
25170;DHT22;13129;48.012;10.352;2023-07-22T17:14:08;22.20;66.20
25170;DHT22;13129;48.012;10.352;2023-07-22T17:16:33;22.10;66.60
25170;DHT22;13129;48.012;10.352;2023-07-22T17:18:59;22.00;67.10
25170;DHT22;13129;48.012;10.352;2023-07-22T17:21:25;22.10;67.60
25170;DHT22;13129;48.012;10.352;2023-07-22T17:23:50;22.10;67.60
25170;DHT22;13129;48.012;10.352;2023-07-22T17:26:16;22.10;67.60
25170;DHT22;13129;48.012;10.352;2023-07-22T17:28:42;22.10;67.40
25170;DHT22;13129;48.012;10.352;2023-07-22T17:31:07;22.10;67.30
25170;DHT22;13129;48.012;10.352;2023-07-22T17:33:33;22.10;67.40
25170;DHT22;13129;48.012;10.352;2023-07-22T17:35:58;22.00;67.40
25170;DHT22;13129;48.012;10.352;2023-07-22T17:38:24;22.00;67.80
25170;DHT22;13129;48.012;10.352;2023-07-22T17:40:50;22.00;68.10
25170;DHT22;13129;48.012;10.352;2023-07-22T17:43:16;21.90;68.30
25170;DHT22;13129;48.012;10.352;2023-07-22T17:45:42;21.80;68.90
25170;DHT22;13129;48.012;10.352;2023-07-22T17:48:08;21.80;69.00
25170;DHT22;13129;48.012;10.352;2023-07-22T17:50:33;21.70;69.50
25170;DHT22;13129;48.012;10.352;2023-07-22T17:52:59;21.70;69.40
25170;DHT22;13129;48.012;10.352;2023-07-22T17:55:25;21.60;69.40
25170;DHT22;13129;48.012;10.352;2023-07-22T17:57:51;21.50;69.90
25170;DHT22;13129;48.012;10.352;2023-07-22T18:00:16;21.50;70.10
25170;DHT22;13129;48.012;10.352;2023-07-22T18:02:42;21.40;71.10
25170;DHT22;13129;48.012;10.352;2023-07-22T18:05:08;21.30;70.70
25170;DHT22;13129;48.012;10.352;2023-07-22T18:07:34;21.20;70.80
25170;DHT22;13129;48.012;10.352;2023-07-22T18:10:03;21.20;71.60
25170;DHT22;13129;48.012;10.352;2023-07-22T18:12:29;21.10;72.20
25170;DHT22;13129;48.012;10.352;2023-07-22T18:14:55;21.10;72.60
25170;DHT22;13129;48.012;10.352;2023-07-22T18:17:20;21.00;72.50
25170;DHT22;13129;48.012;10.352;2023-07-22T18:19:46;21.00;72.50
25170;DHT22;13129;48.012;10.352;2023-07-22T18:22:12;20.90;73.10
25170;DHT22;13129;48.012;10.352;2023-07-22T18:24:38;20.80;73.20
25170;DHT22;13129;48.012;10.352;2023-07-22T18:27:04;20.70;73.30
25170;DHT22;13129;48.012;10.352;2023-07-22T18:29:29;20.60;73.40
25170;DHT22;13129;48.012;10.352;2023-07-22T18:31:55;20.50;73.60
25170;DHT22;13129;48.012;10.352;2023-07-22T18:34:21;20.40;73.80
25170;DHT22;13129;48.012;10.352;2023-07-22T18:36:50;20.30;74.10
25170;DHT22;13129;48.012;10.352;2023-07-22T18:39:17;20.20;74.40
25170;DHT22;13129;48.012;10.352;2023-07-22T18:41:43;20.10;74.70
25170;DHT22;13129;48.012;10.352;2023-07-22T18:44:09;20.00;75.00
25170;DHT22;13129;48.012;10.352;2023-07-22T18:46:35;20.00;75.20